Time;durP1;ratioP1;P1;durP2;ratioP2;P2;SDS_P1;SDS_P2;PMS_P1;PMS_P2;Temp;Humidity;BMP_temperature;BMP_pressure;BME280_temperature;BME280_humidity;BME280_pressure;Samples;Min_cycle;Max_cycle;Signal;HPM_P1;HPM_P2
2021/05/31 00:01:50;;;;;;;2.30;1.90;;;13.00;99.90;;;;;;4961149;28;20217;-79
2021/05/31 00:04:15;;;;;;;5.80;1.90;;;12.90;99.90;;;;;;4961934;28;20274;-79
2021/05/31 00:07:06;;;;;;;2.73;2.13;;;12.90;99.90;;;;;;4962136;28;20167;-81
2021/05/31 00:09:32;;;;;;;4.50;2.23;;;12.80;99.90;;;;;;4978168;28;20155;-79
2021/05/31 00:11:58;;;;;;;3.80;2.10;;;12.80;99.90;;;;;;4961808;28;20197;-78
2021/05/31 00:14:24;;;;;;;3.50;2.00;;;12.70;99.90;;;;;;4961785;28;20167;-79
2021/05/31 00:16:50;;;;;;;4.30;1.90;;;12.70;99.90;;;;;;4961830;28;20238;-78
2021/05/31 00:19:16;;;;;;;2.70;1.93;;;12.60;99.90;;;;;;4977748;28;20198;-79
2021/05/31 00:21:42;;;;;;;3.13;1.80;;;12.70;99.90;;;;;;4961715;28;20222;-78
2021/05/31 00:24:08;;;;;;;2.90;1.80;;;12.70;99.90;;;;;;4977981;28;20218;-79
2021/05/31 00:26:33;;;;;;;3.23;2.00;;;12.60;99.90;;;;;;4961799;28;20239;-81
2021/05/31 00:28:59;;;;;;;3.83;2.43;;;12.60;99.90;;;;;;4961504;28;20198;-78
2021/05/31 00:31:24;;;;;;;3.67;2.03;;;12.50;99.90;;;;;;4960936;28;20206;-79
2021/05/31 00:33:50;;;;;;;3.67;2.27;;;12.50;99.90;;;;;;4961824;28;20201;-79
2021/05/31 00:36:16;;;;;;;5.47;2.30;;;12.60;99.90;;;;;;4961795;28;20198;-80
2021/05/31 00:38:42;;;;;;;2.77;2.03;;;12.50;99.90;;;;;;4961415;28;20190;-79
2021/05/31 00:41:08;;;;;;;4.77;2.47;;;12.50;99.90;;;;;;4961342;28;20186;-79
2021/05/31 00:43:34;;;;;;;3.63;2.03;;;12.50;99.90;;;;;;4961325;28;20221;-79
2021/05/31 00:46:06;;;;;;;3.77;2.20;;;12.40;99.90;;;;;;4977527;28;20233;-79
2021/05/31 00:48:32;;;;;;;5.33;2.50;;;12.50;99.90;;;;;;4960755;28;20201;-80
2021/05/31 00:50:59;;;;;;;2.90;2.20;;;12.40;99.90;;;;;;4977277;28;20194;-79
2021/05/31 00:53:25;;;;;;;4.10;2.33;;;12.40;99.90;;;;;;4977328;28;20195;-79
2021/05/31 00:55:51;;;;;;;2.97;2.40;;;12.40;99.90;;;;;;4977387;28;20195;-80
2021/05/31 00:58:17;;;;;;;3.80;2.40;;;12.40;99.90;;;;;;4945598;28;20186;-79
2021/05/31 01:00:45;;;;;;;4.03;2.40;;;12.40;99.90;;;;;;4961018;28;20201;-79
2021/05/31 01:03:11;;;;;;;4.80;2.73;;;12.30;99.90;;;;;;4976813;28;20213;-79
2021/05/31 01:05:37;;;;;;;4.80;2.70;;;12.40;99.90;;;;;;4961170;28;20191;-79
2021/05/31 01:08:07;;;;;;;5.10;2.53;;;12.30;99.90;;;;;;4977020;28;20182;-78
2021/05/31 01:10:53;;;;;;;3.80;2.10;;;12.40;99.90;;;;;;4976733;28;20202;-79
2021/05/31 01:13:28;;;;;;;5.20;2.43;;;12.30;99.90;;;;;;4976672;28;20169;-78
2021/05/31 01:16:27;;;;;;;4.73;2.70;;;12.30;99.90;;;;;;4961097;28;20190;-79
2021/05/31 01:18:52;;;;;;;4.77;2.40;;;12.20;99.90;;;;;;4975205;28;20177;-79
2021/05/31 01:21:43;;;;;;;3.83;2.73;;;12.20;99.90;;;;;;4976680;28;20218;-79
2021/05/31 01:24:18;;;;;;;6.73;2.60;;;12.20;99.90;;;;;;4961560;28;20210;-79
2021/05/31 01:26:54;;;;;;;4.33;2.90;;;12.10;99.90;;;;;;4960176;28;20209;-79
2021/05/31 01:29:25;;;;;;;4.17;2.43;;;12.10;99.90;;;;;;4975900;28;20158;-79
2021/05/31 01:31:54;;;;;;;4.63;2.60;;;12.10;99.90;;;;;;4975868;28;20186;-79
2021/05/31 01:34:22;;;;;;;6.57;3.20;;;12.10;99.90;;;;;;4976588;28;20185;-79
2021/05/31 01:36:59;;;;;;;5.40;2.97;;;12.10;99.90;;;;;;4976580;28;20173;-79
2021/05/31 01:39:26;;;;;;;4.03;2.60;;;12.00;99.90;;;;;;4975109;28;20209;-79
2021/05/31 01:41:52;;;;;;;4.03;2.57;;;12.10;99.90;;;;;;4976393;28;20182;-79
2021/05/31 01:47:40;;;;;;;5.30;2.97;;;12.00;99.90;;;;;;4960481;28;20186;-80
2021/05/31 01:50:06;;;;;;;6.13;3.00;;;12.00;99.90;;;;;;4960104;28;20190;-79
2021/05/31 01:52:32;;;;;;;5.03;2.83;;;11.90;99.90;;;;;;4976224;28;20190;-78
2021/05/31 01:54:58;;;;;;;5.07;2.90;;;11.90;99.90;;;;;;4976250;28;20166;-79
2021/05/31 01:57:23;;;;;;;3.70;2.57;;;11.90;99.90;;;;;;4960189;28;20285;-78
2021/05/31 01:59:49;;;;;;;5.63;2.87;;;11.80;99.90;;;;;;4976029;28;20385;-80
2021/05/31 02:02:15;;;;;;;6.17;2.50;;;11.90;99.90;;;;;;4975898;28;20166;-79
2021/05/31 02:04:41;;;;;;;5.93;2.93;;;11.80;99.90;;;;;;4960071;28;20233;-79
2021/05/31 02:07:06;;;;;;;4.80;2.77;;;11.80;99.90;;;;;;4976224;28;20167;-79
2021/05/31 02:09:32;;;;;;;5.30;2.90;;;11.70;99.90;;;;;;4959942;28;20197;-78
2021/05/31 02:12:04;;;;;;;3.50;2.63;;;11.70;99.90;;;;;;4975842;28;20178;-79
2021/05/31 02:14:48;;;;;;;3.97;2.67;;;11.70;99.90;;;;;;4960554;28;20197;-78
2021/05/31 02:17:35;;;;;;;5.87;3.17;;;11.70;99.90;;;;;;4959881;28;20175;-78
2021/05/31 02:20:06;;;;;;;4.97;2.90;;;11.60;99.90;;;;;;4959458;28;20196;-79
2021/05/31 02:22:32;;;;;;;4.53;2.80;;;11.60;99.90;;;;;;4975782;28;20172;-79
2021/05/31 02:24:57;;;;;;;4.17;2.70;;;11.60;99.90;;;;;;4975653;28;20193;-79
2021/05/31 02:27:23;;;;;;;5.00;3.00;;;11.60;99.90;;;;;;4959545;28;20174;-78
2021/05/31 02:29:49;;;;;;;3.83;2.50;;;11.50;99.90;;;;;;4959536;28;20173;-78
2021/05/31 02:32:15;;;;;;;4.97;2.70;;;11.50;99.90;;;;;;4959750;28;20257;-78
2021/05/31 02:34:40;;;;;;;4.63;2.90;;;11.50;99.90;;;;;;4975668;28;20166;-78
2021/05/31 02:37:07;;;;;;;4.47;2.67;;;11.40;99.90;;;;;;4959048;28;20170;-80
2021/05/31 02:39:33;;;;;;;5.97;3.07;;;11.40;99.90;;;;;;4959320;28;20186;-78
2021/05/31 02:41:58;;;;;;;4.47;2.70;;;11.40;99.90;;;;;;4975446;28;20218;-78
2021/05/31 02:44:24;;;;;;;4.30;2.80;;;11.40;99.90;;;;;;4975672;28;20269;-77
2021/05/31 02:46:50;;;;;;;4.47;2.77;;;11.40;99.90;;;;;;4959556;28;20193;-78
2021/05/31 02:49:15;;;;;;;4.00;2.70;;;11.30;99.90;;;;;;4975489;28;20166;-78
2021/05/31 02:51:41;;;;;;;6.03;3.20;;;11.20;99.90;;;;;;4959389;28;20187;-78
2021/05/31 02:54:07;;;;;;;4.07;2.50;;;11.20;99.90;;;;;;4974916;28;20259;-78
2021/05/31 02:56:32;;;;;;;4.53;2.67;;;11.20;99.90;;;;;;4975113;28;20242;-80
2021/05/31 02:58:58;;;;;;;5.40;3.10;;;11.20;99.90;;;;;;4975341;28;20170;-79
2021/05/31 03:01:24;;;;;;;3.87;2.60;;;11.10;99.90;;;;;;4975307;28;20178;-78
2021/05/31 03:03:49;;;;;;;3.93;2.90;;;11.00;99.90;;;;;;4975404;28;20209;-78
2021/05/31 03:06:15;;;;;;;4.40;2.87;;;11.00;99.90;;;;;;4975493;28;20166;-78
2021/05/31 03:08:40;;;;;;;6.43;3.10;;;11.00;99.90;;;;;;4959371;28;20194;-78
2021/05/31 03:11:06;;;;;;;4.43;2.93;;;11.00;99.90;;;;;;4974940;28;20182;-78
2021/05/31 03:13:31;;;;;;;5.13;2.73;;;10.90;99.90;;;;;;4959279;28;20174;-77
2021/05/31 03:15:57;;;;;;;5.97;2.57;;;10.90;99.90;;;;;;4975275;28;20178;-78
2021/05/31 03:18:22;;;;;;;5.87;3.33;;;10.90;99.90;;;;;;4959319;28;20205;-78
2021/05/31 03:20:48;;;;;;;4.67;2.83;;;10.90;99.90;;;;;;4959093;28;20229;-78
2021/05/31 03:23:14;;;;;;;3.87;2.63;;;10.80;99.90;;;;;;4959120;28;20281;-78
2021/05/31 03:25:39;;;;;;;5.40;2.97;;;10.80;99.90;;;;;;4984480;28;20209;-78
2021/05/31 03:28:05;;;;;;;4.57;2.83;;;11.00;99.90;;;;;;4994774;28;20236;-78
2021/05/31 03:30:31;;;;;;;4.93;3.30;;;10.80;99.90;;;;;;4960751;28;20197;-78
2021/05/31 03:32:57;;;;;;;7.03;3.40;;;10.80;99.90;;;;;;4975083;28;20200;-78
2021/05/31 03:35:22;;;;;;;5.00;3.17;;;10.80;99.90;;;;;;4959735;28;20283;-82
2021/05/31 03:37:48;;;;;;;5.33;3.40;;;10.80;99.90;;;;;;4959682;28;20194;-81
2021/05/31 03:40:46;;;;;;;7.30;3.30;;;10.80;99.90;;;;;;4959873;28;20194;-80
2021/05/31 03:43:12;;;;;;;4.87;3.20;;;10.80;99.90;;;;;;4959719;28;20202;-81
2021/05/31 03:45:38;;;;;;;7.30;3.00;;;10.70;99.90;;;;;;4975854;28;20169;-80
2021/05/31 03:48:13;;;;;;;5.87;3.40;;;10.80;99.90;;;;;;4959736;28;20171;-81
2021/05/31 03:50:39;;;;;;;6.50;3.57;;;10.80;99.90;;;;;;4959848;28;20220;-81
2021/05/31 03:53:05;;;;;;;7.03;3.07;;;10.80;99.90;;;;;;4959912;28;20226;-81
2021/05/31 03:55:30;;;;;;;6.60;3.37;;;10.80;99.90;;;;;;4959928;28;20170;-80
2021/05/31 03:57:56;;;;;;;5.90;3.20;;;10.80;99.90;;;;;;4962543;28;20250;-82
2021/05/31 04:00:53;;;;;;;6.47;3.60;;;10.80;99.90;;;;;;4959872;28;20206;-81
2021/05/31 04:03:40;;;;;;;6.43;3.60;;;10.70;99.90;;;;;;4960252;28;20202;-82
2021/05/31 04:14:33;;;;;;;7.00;3.87;;;10.90;99.90;;;;;;4978943;28;20178;-82
2021/05/31 04:16:59;;;;;;;8.37;3.97;;;10.90;99.90;;;;;;4972099;28;20189;-78
2021/05/31 04:19:25;;;;;;;7.70;4.27;;;11.00;99.90;;;;;;4957955;28;20200;-76
2021/05/31 04:21:51;;;;;;;8.33;4.00;;;11.00;99.90;;;;;;4936026;29;20247;-76
2021/05/31 04:24:17;;;;;;;6.53;3.83;;;11.00;99.90;;;;;;4961777;29;20193;-80
2021/05/31 04:26:46;;;;;;;7.03;3.83;;;11.10;99.90;;;;;;4970080;28;20193;-80
2021/05/31 04:29:13;;;;;;;8.33;4.40;;;11.20;99.90;;;;;;4971650;28;20182;-80
2021/05/31 04:31:39;;;;;;;7.60;4.10;;;11.20;99.90;;;;;;4971954;29;20202;-81
2021/05/31 04:34:06;;;;;;;9.07;4.00;;;11.30;99.90;;;;;;4944238;29;20270;-83
2021/05/31 04:36:31;;;;;;;8.83;4.43;;;11.30;99.90;;;;;;4972984;29;20171;-81
2021/05/31 04:38:57;;;;;;;9.97;4.57;;;11.40;99.90;;;;;;4963136;29;20189;-81
2021/05/31 04:41:23;;;;;;;10.07;4.87;;;11.50;99.90;;;;;;4960150;29;20740;-81
2021/05/31 04:43:48;;;;;;;7.30;4.27;;;11.50;99.90;;;;;;4967991;28;20202;-80
2021/05/31 04:46:14;;;;;;;10.13;5.47;;;11.60;99.90;;;;;;4949952;28;20170;-80
2021/05/31 04:48:40;;;;;;;9.20;4.50;;;11.70;99.90;;;;;;4952367;29;20237;-79
2021/05/31 04:51:05;;;;;;;10.97;5.90;;;11.80;99.90;;;;;;4943647;29;20202;-78
2021/05/31 04:53:31;;;;;;;12.10;5.33;;;11.80;99.90;;;;;;4935606;29;20242;-78
2021/05/31 04:55:57;;;;;;;10.60;5.67;;;12.00;99.90;;;;;;4935590;29;20718;-79
2021/05/31 04:58:23;;;;;;;11.30;5.27;;;12.00;99.90;;;;;;4968313;28;20193;-77
2021/05/31 05:00:49;;;;;;;11.47;5.80;;;12.00;99.90;;;;;;4970843;28;20240;-79
2021/05/31 05:03:14;;;;;;;12.80;5.53;;;12.10;99.90;;;;;;4971062;28;20635;-80
2021/05/31 05:05:40;;;;;;;11.80;5.83;;;12.30;99.90;;;;;;4971087;28;20178;-79
2021/05/31 05:08:06;;;;;;;11.67;5.53;;;12.40;99.90;;;;;;4955137;29;20236;-80
2021/05/31 05:10:31;;;;;;;10.93;6.37;;;12.50;99.90;;;;;;4952080;29;20245;-78
2021/05/31 05:12:57;;;;;;;13.03;6.07;;;12.60;99.90;;;;;;4952461;28;20201;-78
2021/05/31 05:15:24;;;;;;;11.77;6.10;;;12.70;99.90;;;;;;4935826;29;20214;-78
2021/05/31 05:17:49;;;;;;;10.33;5.77;;;12.90;99.90;;;;;;4953116;28;20245;-79
2021/05/31 05:20:16;;;;;;;13.70;5.97;;;13.00;99.90;;;;;;4924080;29;20202;-79
2021/05/31 05:22:41;;;;;;;11.10;6.03;;;13.10;99.90;;;;;;4949400;29;20189;-79
2021/05/31 05:25:07;;;;;;;12.57;5.97;;;13.30;99.90;;;;;;4946830;29;20174;-80
2021/05/31 05:27:33;;;;;;;12.30;6.20;;;13.40;99.90;;;;;;4928540;29;20631;-79
2021/05/31 05:29:59;;;;;;;11.30;6.33;;;13.60;99.90;;;;;;4935566;29;20246;-81
2021/05/31 05:32:24;;;;;;;13.03;5.73;;;13.80;99.90;;;;;;4921427;29;20611;-80
2021/05/31 05:34:52;;;;;;;11.20;6.27;;;13.90;99.90;;;;;;4921965;29;20263;-79
2021/05/31 05:37:25;;;;;;;9.33;5.57;;;14.10;99.90;;;;;;4937521;29;20198;-79
2021/05/31 05:40:08;;;;;;;11.37;5.87;;;14.30;99.90;;;;;;4940338;29;20618;-80
2021/05/31 05:45:43;;;;;;;16.70;6.87;;;16.10;99.90;;;;;;4940688;29;20166;-80
2021/05/31 05:48:03;;;;;;;12.17;6.83;;;16.70;99.90;;;;;;4939076;29;20202;-81
2021/05/31 05:50:28;;;;;;;13.73;6.27;;;17.00;99.90;;;;;;4938482;29;20567;-80
2021/05/31 05:52:54;;;;;;;11.77;6.60;;;17.10;99.90;;;;;;4922810;29;20174;-80
2021/05/31 05:55:20;;;;;;;11.93;6.10;;;17.40;99.90;;;;;;4938080;29;20174;-80
2021/05/31 05:57:46;;;;;;;9.83;6.37;;;17.70;99.90;;;;;;4938403;29;20178;-80
2021/05/31 06:00:14;;;;;;;11.77;5.77;;;17.60;99.90;;;;;;4939202;29;20208;-77
2021/05/31 06:02:40;;;;;;;9.23;5.53;;;17.70;99.90;;;;;;4970168;28;20190;-79
2021/05/31 06:05:06;;;;;;;9.40;5.87;;;18.00;99.90;;;;;;4970400;28;20185;-79
2021/05/31 06:07:32;;;;;;;13.00;5.87;;;18.80;99.90;;;;;;4970015;28;20184;-79
2021/05/31 06:09:58;;;;;;;11.77;5.73;;;19.80;99.90;;;;;;4954507;29;20268;-79
2021/05/31 06:12:23;;;;;;;10.47;5.97;;;20.40;99.90;;;;;;4954756;29;20272;-80
2021/05/31 06:14:49;;;;;;;10.17;5.70;;;20.80;99.90;;;;;;4970292;28;20205;-79
2021/05/31 06:17:14;;;;;;;9.83;5.63;;;20.80;99.90;;;;;;4970598;28;20185;-79
2021/05/31 06:19:40;;;;;;;11.47;5.33;;;21.20;99.90;;;;;;4953536;29;20185;-79
2021/05/31 06:22:05;;;;;;;9.67;4.93;;;21.40;99.90;;;;;;4970189;28;20587;-79
2021/05/31 06:24:31;;;;;;;8.77;5.47;;;21.00;99.90;;;;;;4954027;29;20769;-79
2021/05/31 06:26:56;;;;;;;10.47;5.37;;;20.50;99.90;;;;;;4953801;29;20197;-79
2021/05/31 06:29:22;;;;;;;10.30;6.17;;;19.80;99.90;;;;;;4953054;28;20177;-79
2021/05/31 06:31:48;;;;;;;10.33;6.00;;;19.20;99.90;;;;;;4969995;28;20556;-79
2021/05/31 06:34:13;;;;;;;10.43;5.40;;;18.90;99.90;;;;;;4959445;29;20612;-81
2021/05/31 06:36:41;;;;;;;9.17;5.70;;;18.70;99.90;;;;;;4955810;29;20564;-79
2021/05/31 06:39:08;;;;;;;8.30;5.00;;;18.60;99.90;;;;;;4973645;28;20229;-80
2021/05/31 06:41:34;;;;;;;10.93;5.33;;;18.70;99.90;;;;;;4974149;28;20197;-80
2021/05/31 06:44:00;;;;;;;10.30;5.30;;;18.90;99.90;;;;;;4958247;29;20303;-82
2021/05/31 06:46:26;;;;;;;8.47;5.40;;;19.20;99.90;;;;;;4958517;29;20628;-80
2021/05/31 06:48:51;;;;;;;10.23;5.40;;;19.10;99.90;;;;;;4959844;29;20273;-81
2021/05/31 06:51:17;;;;;;;9.67;5.90;;;18.90;99.90;;;;;;4958549;29;20212;-83
2021/05/31 06:53:43;;;;;;;7.83;4.93;;;18.70;99.90;;;;;;4956911;29;20248;-82
2021/05/31 06:56:08;;;;;;;9.13;5.20;;;18.70;99.90;;;;;;4956986;29;20177;-84
2021/05/31 06:58:34;;;;;;;7.57;5.03;;;18.80;99.90;;;;;;4956647;29;20191;-84
2021/05/31 07:00:59;;;;;;;9.03;5.27;;;18.70;99.90;;;;;;4947678;29;20285;-84
2021/05/31 07:03:25;;;;;;;9.50;5.83;;;18.70;99.90;;;;;;4937883;29;20225;-83
2021/05/31 07:05:50;;;;;;;9.03;5.50;;;18.80;99.90;;;;;;4937906;29;20178;-85
2021/05/31 07:08:16;;;;;;;10.17;5.40;;;18.90;99.90;;;;;;4953662;29;20186;-81
2021/05/31 07:10:42;;;;;;;7.60;4.93;;;18.80;99.90;;;;;;4937115;29;20202;-87
2021/05/31 07:13:08;;;;;;;13.93;5.90;;;18.80;99.90;;;;;;4936481;29;20221;-83
2021/05/31 07:15:34;;;;;;;8.90;5.00;;;19.00;99.90;;;;;;4936653;29;20183;-82
2021/05/31 07:18:00;;;;;;;8.27;5.20;;;19.00;99.90;;;;;;4936616;29;20186;-81
2021/05/31 07:20:25;;;;;;;8.53;5.23;;;19.00;99.90;;;;;;4952829;29;20213;-82
2021/05/31 07:22:51;;;;;;;6.73;5.07;;;19.20;99.90;;;;;;4939647;29;20209;-84
2021/05/31 07:25:17;;;;;;;7.30;5.03;;;19.10;99.90;;;;;;4941322;29;20197;-85
2021/05/31 07:27:43;;;;;;;8.67;5.57;;;19.40;99.90;;;;;;4940195;29;20179;-85
2021/05/31 07:30:09;;;;;;;7.47;4.97;;;19.40;99.90;;;;;;4942023;29;20205;-85
2021/05/31 07:32:36;;;;;;;10.83;5.10;;;19.70;99.90;;;;;;4940547;29;20175;-85
2021/05/31 07:35:03;;;;;;;8.10;4.80;;;20.00;99.90;;;;;;4939232;29;20179;-85
2021/05/31 07:37:29;;;;;;;10.23;5.23;;;19.90;99.90;;;;;;4938435;29;20581;-85
2021/05/31 07:39:54;;;;;;;8.30;5.30;;;19.50;99.90;;;;;;4955338;29;20175;-86
2021/05/31 07:42:20;;;;;;;8.63;4.63;;;19.30;99.90;;;;;;4942796;29;20261;-84
2021/05/31 07:44:46;;;;;;;9.07;4.73;;;19.20;99.90;;;;;;4944527;29;20238;-85
2021/05/31 07:47:11;;;;;;;7.70;4.67;;;19.40;99.90;;;;;;4960240;29;20170;-84
2021/05/31 07:49:37;;;;;;;7.27;4.60;;;19.60;99.90;;;;;;4960007;29;20226;-85
2021/05/31 07:52:19;;;;;;;6.10;4.57;;;19.80;99.90;;;;;;4945213;29;20226;-84
2021/05/31 07:54:45;;;;;;;8.83;4.67;;;19.80;99.90;;;;;;4944613;29;20205;-85
2021/05/31 07:57:10;;;;;;;7.93;5.03;;;20.00;99.90;;;;;;4960995;29;20182;-84
2021/05/31 07:59:36;;;;;;;6.70;4.80;;;20.30;99.90;;;;;;4947166;29;20182;-85
2021/05/31 08:02:01;;;;;;;7.70;4.47;;;20.40;99.90;;;;;;4962451;29;20202;-85
2021/05/31 08:04:27;;;;;;;9.20;4.70;;;20.20;99.90;;;;;;4949309;29;20213;-85
2021/05/31 08:06:53;;;;;;;7.30;4.63;;;20.20;99.90;;;;;;4947784;29;20179;-85
2021/05/31 08:09:19;;;;;;;9.93;5.33;;;20.00;99.90;;;;;;4964000;29;20178;-84
2021/05/31 08:11:44;;;;;;;8.10;5.07;;;20.00;99.90;;;;;;4945242;29;20202;-86
2021/05/31 08:14:10;;;;;;;8.17;4.80;;;20.00;99.90;;;;;;4946891;29;20564;-85
2021/05/31 08:16:35;;;;;;;6.70;4.57;;;20.20;99.90;;;;;;4945755;29;20193;-85
2021/05/31 08:19:01;;;;;;;9.57;5.20;;;20.20;99.90;;;;;;4962206;29;20630;-85
2021/05/31 08:21:27;;;;;;;6.23;4.47;;;20.30;99.90;;;;;;4944262;29;20229;-85
2021/05/31 08:23:52;;;;;;;5.43;3.83;;;20.50;99.90;;;;;;4942616;29;20312;-84
2021/05/31 08:26:20;;;;;;;9.60;4.67;;;20.70;99.90;;;;;;4945527;29;20209;-85
2021/05/31 08:28:46;;;;;;;7.30;4.63;;;20.80;99.90;;;;;;4945319;29;20274;-84
2021/05/31 08:31:12;;;;;;;7.50;4.33;;;20.80;99.90;;;;;;4944383;29;20203;-84
2021/05/31 08:33:38;;;;;;;9.43;5.00;;;20.70;99.90;;;;;;4960224;29;20182;-85
2021/05/31 08:36:04;;;;;;;7.93;4.57;;;20.70;99.90;;;;;;4962002;29;20182;-84
2021/05/31 08:38:31;;;;;;;7.87;4.67;;;20.60;99.90;;;;;;4945282;29;20745;-84
2021/05/31 08:40:57;;;;;;;8.20;4.77;;;20.60;99.90;;;;;;4962397;29;20231;-85
2021/05/31 08:43:22;;;;;;;7.20;4.63;;;20.70;99.90;;;;;;4945218;29;20210;-85
2021/05/31 08:45:48;;;;;;;8.87;4.73;;;20.60;99.90;;;;;;4962581;29;20178;-85
2021/05/31 08:48:13;;;;;;;5.93;4.17;;;20.70;99.90;;;;;;4945819;29;20271;-84
2021/05/31 08:50:39;;;;;;;9.60;4.93;;;20.80;99.90;;;;;;4944235;29;20198;-84
2021/05/31 08:53:05;;;;;;;8.60;4.67;;;20.80;99.90;;;;;;4945810;29;20191;-86
2021/05/31 08:55:31;;;;;;;7.43;4.37;;;20.60;99.90;;;;;;4946946;29;20201;-85
2021/05/31 08:57:56;;;;;;;9.10;5.20;;;20.50;99.90;;;;;;4962946;29;20292;-85
2021/05/31 09:00:29;;;;;;;9.27;4.97;;;20.60;99.90;;;;;;4961597;29;20692;-85
2021/05/31 09:02:58;;;;;;;6.43;4.40;;;20.60;99.90;;;;;;4942998;29;20370;-84
2021/05/31 09:05:51;;;;;;;7.97;5.00;;;20.60;99.90;;;;;;4944473;29;20191;-84
2021/05/31 09:08:18;;;;;;;7.83;5.23;;;20.70;99.90;;;;;;4925843;29;20190;-85
2021/05/31 09:10:51;;;;;;;9.30;5.37;;;20.70;99.90;;;;;;4944915;29;20721;-84
2021/05/31 09:13:34;;;;;;;6.47;4.43;;;20.60;99.90;;;;;;4946107;29;20185;-85
2021/05/31 09:16:15;;;;;;;7.83;4.27;;;20.90;99.90;;;;;;4946107;29;20653;-85
2021/05/31 09:18:54;;;;;;;9.27;5.00;;;21.00;99.90;;;;;;4962143;29;20193;-85
2021/05/31 09:21:21;;;;;;;6.23;3.67;;;21.10;99.90;;;;;;4962192;28;20211;-84
2021/05/31 09:23:52;;;;;;;9.37;3.67;;;21.10;99.90;;;;;;4945690;29;20256;-87
2021/05/31 09:26:17;;;;;;;4.93;3.17;;;21.30;99.90;;;;;;4957565;29;20193;-81
2021/05/31 09:28:57;;;;;;;4.17;3.07;;;21.40;99.90;;;;;;4944796;29;20190;-84
2021/05/31 09:31:23;;;;;;;4.60;3.43;;;21.50;99.90;;;;;;4937774;29;20206;-84
2021/05/31 09:34:04;;;;;;;5.40;3.40;;;21.30;99.90;;;;;;4937644;29;20198;-78
2021/05/31 09:36:30;;;;;;;5.10;2.97;;;21.20;99.90;;;;;;4955193;29;20186;-81
2021/05/31 09:38:56;;;;;;;5.33;3.53;;;21.40;99.90;;;;;;4954235;29;20185;-81
2021/05/31 09:41:29;;;;;;;7.77;3.50;;;21.40;99.90;;;;;;4954086;29;20206;-79
2021/05/31 09:44:04;;;;;;;5.97;3.17;;;21.50;99.90;;;;;;4956116;29;20256;-81
2021/05/31 09:46:37;;;;;;;6.57;3.27;;;21.50;99.90;;;;;;4941307;29;20193;-82
2021/05/31 09:49:16;;;;;;;4.00;3.23;;;21.60;99.90;;;;;;4972188;28;20214;-83
2021/05/31 09:51:59;;;;;;;3.87;2.40;;;21.60;99.90;;;;;;4940145;29;20205;-81
2021/05/31 09:54:33;;;;;;;3.70;2.60;;;21.40;99.90;;;;;;4953335;29;20649;-83
2021/05/31 09:56:59;;;;;;;6.47;3.07;;;21.40;99.90;;;;;;4938510;29;20186;-80
2021/05/31 09:59:29;;;;;;;5.57;2.70;;;21.40;99.90;;;;;;4936189;29;20657;-81
2021/05/31 10:01:57;;;;;;;4.07;2.60;;;21.50;99.90;;;;;;4937404;29;20205;-80
2021/05/31 10:07:39;;;;;;;4.53;2.10;;;21.60;99.90;;;;;;4940489;29;20272;-82
2021/05/31 10:10:05;;;;;;;2.23;1.80;;;21.50;99.90;;;;;;4956760;29;20201;-79
2021/05/31 10:12:31;;;;;;;4.30;2.90;;;21.70;99.90;;;;;;4963902;28;20185;-81
2021/05/31 10:14:57;;;;;;;5.93;2.80;;;21.60;99.90;;;;;;4956333;29;20181;-79
2021/05/31 10:17:25;;;;;;;2.93;2.03;;;21.60;99.90;;;;;;4957545;28;20194;-80
2021/05/31 10:19:50;;;;;;;3.23;2.07;;;21.60;99.90;;;;;;4961458;28;20190;-79
2021/05/31 10:22:16;;;;;;;3.30;1.77;;;21.70;99.90;;;;;;4955352;29;20238;-80
2021/05/31 10:24:42;;;;;;;2.50;1.83;;;21.70;99.90;;;;;;4957012;29;20271;-79
2021/05/31 10:27:10;;;;;;;2.40;1.63;;;21.70;99.90;;;;;;4953389;29;20198;-80
2021/05/31 10:29:35;;;;;;;3.97;2.07;;;21.80;99.90;;;;;;4936883;29;20182;-80
2021/05/31 10:32:06;;;;;;;2.60;1.50;;;22.00;99.90;;;;;;4954951;29;20262;-82
2021/05/31 10:34:42;;;;;;;2.10;1.80;;;21.90;99.90;;;;;;4956610;28;20257;-80
2021/05/31 10:37:16;;;;;;;2.50;1.67;;;22.00;99.90;;;;;;4953552;29;20214;-80
2021/05/31 10:39:41;;;;;;;4.20;2.10;;;21.90;99.90;;;;;;4935529;29;20671;-81
2021/05/31 10:42:07;;;;;;;2.37;1.60;;;22.10;99.90;;;;;;4953928;29;20248;-82
2021/05/31 10:44:33;;;;;;;4.73;1.90;;;22.10;99.90;;;;;;4925726;29;20226;-82
2021/05/31 10:47:12;;;;;;;3.13;1.90;;;22.10;99.90;;;;;;4970749;28;20633;-80
2021/05/31 10:49:37;;;;;;;2.20;1.93;;;22.10;99.90;;;;;;4954553;29;20212;-80
2021/05/31 10:52:03;;;;;;;2.10;1.47;;;22.10;99.90;;;;;;4954086;29;20260;-79
2021/05/31 10:54:34;;;;;;;2.10;1.70;;;22.30;99.90;;;;;;4971200;28;20184;-80
2021/05/31 10:57:04;;;;;;;1.60;1.40;;;22.20;99.90;;;;;;4970694;28;20208;-82
2021/05/31 10:59:30;;;;;;;2.17;1.53;;;22.30;99.90;;;;;;4970588;28;20256;-81
2021/05/31 11:01:55;;;;;;;2.23;1.53;;;22.40;99.90;;;;;;4954162;29;20201;-80
2021/05/31 11:04:22;;;;;;;3.40;2.13;;;22.40;99.90;;;;;;4954649;29;20619;-82
2021/05/31 11:06:55;;;;;;;2.40;1.80;;;22.30;99.90;;;;;;4954339;28;20183;-80
2021/05/31 11:09:24;;;;;;;2.63;2.03;;;22.30;99.90;;;;;;4934708;29;20206;-85
2021/05/31 11:11:51;;;;;;;1.97;1.60;;;22.20;99.90;;;;;;4935575;29;20198;-84
2021/05/31 11:14:38;;;;;;;3.57;1.93;;;22.30;99.90;;;;;;4950904;29;20174;-82
2021/05/31 11:17:08;;;;;;;7.60;1.90;;;22.20;99.90;;;;;;4951680;28;20194;-84
2021/05/31 11:19:41;;;;;;;2.13;1.73;;;22.20;99.90;;;;;;4954903;29;20241;-83
2021/05/31 11:22:26;;;;;;;2.37;1.90;;;22.20;99.90;;;;;;4938661;29;20174;-83
2021/05/31 11:25:05;;;;;;;2.27;1.70;;;22.30;99.90;;;;;;4939039;29;20206;-83
2021/05/31 11:27:38;;;;;;;2.47;1.70;;;22.30;99.90;;;;;;4953507;29;20230;-83
2021/05/31 11:30:09;;;;;;;3.43;1.80;;;22.30;99.90;;;;;;4938050;29;20693;-81
2021/05/31 11:32:35;;;;;;;3.80;1.90;;;22.30;99.90;;;;;;4963171;28;20197;-83
2021/05/31 11:35:06;;;;;;;2.83;1.83;;;22.30;99.90;;;;;;4959612;29;20228;-82
2021/05/31 11:37:32;;;;;;;1.87;1.60;;;22.30;99.90;;;;;;4955704;29;20178;-84
2021/05/31 11:39:58;;;;;;;2.17;1.60;;;22.30;99.90;;;;;;4955679;29;20658;-84
2021/05/31 11:42:24;;;;;;;3.30;1.67;;;22.40;99.90;;;;;;4956307;29;20185;-83
2021/05/31 11:44:54;;;;;;;3.30;1.60;;;22.50;99.90;;;;;;4940118;29;20264;-81
2021/05/31 11:47:24;;;;;;;4.53;1.60;;;22.60;99.90;;;;;;4956031;29;20175;-83
2021/05/31 11:49:50;;;;;;;3.40;1.50;;;22.70;98.50;;;;;;4941201;29;20183;-84
2021/05/31 11:52:15;;;;;;;1.90;1.30;;;22.60;97.00;;;;;;4961995;29;20681;-84
2021/05/31 11:54:42;;;;;;;1.23;1.10;;;22.50;95.30;;;;;;4958213;29;20228;-81
2021/05/31 11:57:08;;;;;;;1.40;1.20;;;22.40;93.60;;;;;;4957915;29;20185;-82
2021/05/31 11:59:41;;;;;;;3.37;1.53;;;22.50;94.60;;;;;;4973986;28;20539;-82
2021/05/31 12:02:14;;;;;;;1.70;1.17;;;22.60;92.70;;;;;;4957689;29;20609;-82
2021/05/31 12:04:47;;;;;;;1.97;1.20;;;22.60;93.40;;;;;;4957163;29;20752;-82
2021/05/31 12:07:14;;;;;;;1.87;1.20;;;22.70;92.90;;;;;;4974629;28;20176;-83
2021/05/31 12:09:42;;;;;;;1.27;0.90;;;22.60;92.50;;;;;;4957691;29;20181;-83
2021/05/31 12:12:09;;;;;;;2.20;1.20;;;22.70;93.40;;;;;;4957055;29;20173;-81
2021/05/31 12:14:44;;;;;;;1.60;1.13;;;22.60;90.70;;;;;;4957335;29;20564;-86
2021/05/31 12:17:13;;;;;;;2.80;1.30;;;22.70;92.50;;;;;;4953277;29;20178;-85
2021/05/31 12:19:39;;;;;;;1.33;1.10;;;22.70;92.70;;;;;;4951836;29;20190;-85
2021/05/31 12:22:05;;;;;;;1.10;1.00;;;22.80;88.80;;;;;;4951857;29;20194;-87
2021/05/31 12:24:35;;;;;;;2.60;1.27;;;22.60;89.80;;;;;;4951082;29;20269;-87
2021/05/31 12:27:01;;;;;;;1.70;1.33;;;22.60;90.10;;;;;;4950471;29;20649;-87
2021/05/31 12:29:48;;;;;;;1.50;1.10;;;22.70;90.10;;;;;;4934505;29;20174;-86
2021/05/31 12:32:18;;;;;;;1.73;1.00;;;22.80;84.40;;;;;;4935314;29;20602;-86
2021/05/31 12:34:44;;;;;;;1.20;1.10;;;22.90;84.00;;;;;;4943287;29;20264;-88
2021/05/31 12:37:11;;;;;;;1.20;1.00;;;22.80;81.80;;;;;;4931747;29;20261;-87
2021/05/31 12:39:44;;;;;;;1.67;0.90;;;22.90;83.70;;;;;;4928246;29;20178;-87
2021/05/31 12:42:10;;;;;;;1.70;1.00;;;23.00;84.50;;;;;;4952251;29;20174;-86
2021/05/31 12:44:36;;;;;;;1.70;1.03;;;23.00;81.60;;;;;;4929741;29;20253;-85
2021/05/31 12:47:09;;;;;;;3.20;1.00;;;22.90;81.20;;;;;;4935495;29;20584;-85
2021/05/31 12:49:40;;;;;;;2.30;0.80;;;22.90;81.20;;;;;;4943853;29;20174;-85
2021/05/31 12:52:06;;;;;;;1.10;0.80;;;23.10;74.30;;;;;;4928682;29;20226;-86
2021/05/31 12:54:32;;;;;;;1.00;0.90;;;23.00;74.70;;;;;;4945724;29;20214;-85
2021/05/31 12:57:11;;;;;;;3.80;0.90;;;23.10;75.30;;;;;;4942907;29;20235;-85
2021/05/31 12:59:39;;;;;;;1.80;1.03;;;23.00;75.20;;;;;;4952170;29;20177;-85
2021/05/31 13:02:15;;;;;;;1.97;0.90;;;23.00;74.00;;;;;;4954875;29;20212;-85
2021/05/31 13:04:41;;;;;;;0.93;0.70;;;22.90;73.60;;;;;;4954245;29;20256;-86
2021/05/31 13:07:14;;;;;;;1.17;0.90;;;22.90;74.40;;;;;;4972780;28;20559;-81
2021/05/31 13:09:40;;;;;;;0.77;0.70;;;22.90;72.30;;;;;;4948198;29;20546;-80